createdAt,value
2023-04-12T00:02:19.364Z,75.21
2023-04-12T00:07:18.027Z,75.00
2023-04-12T00:12:17.195Z,74.66
2023-04-12T00:17:18.659Z,74.87
2023-04-12T00:22:16.420Z,75.17
2023-04-12T00:27:15.000Z,75.55
2023-04-12T00:32:15.803Z,75.35
2023-04-12T00:37:12.870Z,75.46
2023-04-12T00:42:10.712Z,75.13
2023-04-12T00:47:07.972Z,75.39
2023-04-12T00:52:14.174Z,75.30
2023-04-12T00:57:12.128Z,75.00
2023-04-12T01:02:09.567Z,75.23
2023-04-12T01:07:17.583Z,75.06
2023-04-12T01:12:25.941Z,75.10
2023-04-12T01:17:30.283Z,74.98
2023-04-12T01:22:38.529Z,74.94
2023-04-12T01:27:45.784Z,74.69
2023-04-12T01:32:46.601Z,74.77
2023-04-12T01:37:45.880Z,74.38
2023-04-12T01:42:44.119Z,74.79
2023-04-12T01:47:41.622Z,74.28
2023-04-12T01:52:45.954Z,74.44
2023-04-12T01:57:50.560Z,74.64
2023-04-12T02:02:47.829Z,73.73
2023-04-12T02:07:45.830Z,75.19
2023-04-12T02:12:44.681Z,75.68
2023-04-12T02:17:41.951Z,75.97
2023-04-12T02:22:39.484Z,75.89
2023-04-12T02:27:36.679Z,76.49
2023-04-12T02:32:43.428Z,76.55
2023-04-12T02:37:46.138Z,76.32
2023-04-12T02:42:43.759Z,76.44
2023-04-12T02:47:43.903Z,76.79
2023-04-12T02:52:41.808Z,76.98
2023-04-12T02:57:41.640Z,77.49
2023-04-12T03:02:39.172Z,77.74
2023-04-12T03:07:40.304Z,77.90
2023-04-12T03:12:38.815Z,78.13
2023-04-12T03:18:03.478Z,78.20
2023-04-12T03:23:12.279Z,78.44
2023-04-12T03:28:15.656Z,78.33
2023-04-12T03:33:18.976Z,78.17
2023-04-12T03:38:18.419Z,78.28
2023-04-12T03:43:15.563Z,78.40
2023-04-12T03:48:12.687Z,78.71
2023-04-12T03:53:13.366Z,78.60
2023-04-12T03:58:15.752Z,78.57
2023-04-12T04:03:15.825Z,78.62
2023-04-12T04:08:24.599Z,78.62
2023-04-12T04:13:24.164Z,78.73
2023-04-12T04:18:26.224Z,78.74
2023-04-12T04:23:23.392Z,78.80
2023-04-12T04:28:25.779Z,78.93
2023-04-12T04:33:24.079Z,78.76
2023-04-12T04:38:25.884Z,78.82
2023-04-12T04:43:37.763Z,78.82
2023-04-12T04:48:35.891Z,78.54
2023-04-12T04:53:32.897Z,78.94
2023-04-12T04:58:31.373Z,79.23
2023-04-12T05:03:30.803Z,79.21
2023-04-12T05:08:29.626Z,79.19
2023-04-12T05:13:26.712Z,79.16
2023-04-12T05:18:24.632Z,79.06
2023-04-12T05:23:22.022Z,78.76
2023-04-12T05:28:21.737Z,78.86
2023-04-12T05:33:19.304Z,78.51
2023-04-12T05:38:19.513Z,78.56
2023-04-12T05:43:21.917Z,78.69
2023-04-12T05:48:19.038Z,78.96
2023-04-12T05:53:16.979Z,78.67
2023-04-12T05:58:15.665Z,78.69
2023-04-12T06:03:13.291Z,78.82
2023-04-12T06:08:12.366Z,78.93
2023-04-12T06:13:11.308Z,78.98
2023-04-12T06:18:12.814Z,79.25
2023-04-12T06:23:09.744Z,79.38
2023-04-12T06:28:07.220Z,79.09
2023-04-12T06:33:12.709Z,78.89
2023-04-12T06:38:11.031Z,78.70
2023-04-12T06:43:08.312Z,78.64
2023-04-12T06:48:05.528Z,78.69
2023-04-12T06:53:06.480Z,78.44
2023-04-12T06:58:03.835Z,78.58
2023-04-12T07:03:01.145Z,78.67
2023-04-12T07:08:00.894Z,78.71
2023-04-12T07:13:03.054Z,78.78
2023-04-12T07:18:00.041Z,78.84
2023-04-12T07:23:02.940Z,78.51
2023-04-12T07:28:01.439Z,78.59
2023-04-12T07:33:12.410Z,78.93
2023-04-12T07:38:15.031Z,78.99
2023-04-12T07:43:16.378Z,79.24
2023-04-12T07:48:19.605Z,79.05
2023-04-12T07:53:23.330Z,79.14
2023-04-12T07:58:22.934Z,78.63
2023-04-12T08:03:21.910Z,78.38
2023-04-12T08:08:22.627Z,78.39
2023-04-12T08:13:20.054Z,78.03
2023-04-12T08:18:18.448Z,77.66
2023-04-12T08:23:15.998Z,77.51
2023-04-12T08:28:12.989Z,77.54
2023-04-12T08:33:10.110Z,77.12
2023-04-12T08:38:08.155Z,77.00
2023-04-12T08:43:08.816Z,77.14
2023-04-12T08:48:06.788Z,76.95
2023-04-12T08:53:10.412Z,76.82
2023-04-12T08:58:11.311Z,77.06
2023-04-12T09:03:12.612Z,76.73
2023-04-12T09:08:12.821Z,76.13
2023-04-12T09:13:11.021Z,74.94
2023-04-12T09:18:09.470Z,75.07
2023-04-12T09:23:24.080Z,74.89
2023-04-12T09:28:25.206Z,75.31
2023-04-12T09:33:32.260Z,75.44
2023-04-12T09:38:30.053Z,75.67
2023-04-12T09:43:37.098Z,75.57
2023-04-12T09:48:34.013Z,75.82
2023-04-12T09:53:33.501Z,76.15
2023-04-12T09:58:32.992Z,75.83
2023-04-12T10:03:30.052Z,75.47
2023-04-12T10:08:27.507Z,75.29
2023-04-12T10:13:26.488Z,75.33
2023-04-12T10:18:25.415Z,75.36
2023-04-12T10:23:22.711Z,75.46
2023-04-12T10:28:22.400Z,75.29
2023-04-12T10:33:26.226Z,75.10
2023-04-12T10:38:26.573Z,75.48
2023-04-12T10:43:27.466Z,74.68
2023-04-12T10:48:31.329Z,75.40
2023-04-12T10:53:28.270Z,75.56
2023-04-12T10:59:00.400Z,75.48
2023-04-12T11:04:10.018Z,75.50
2023-04-12T11:09:17.351Z,75.51
2023-04-12T11:14:18.322Z,75.84
2023-04-12T11:19:17.705Z,75.93
2023-04-12T11:24:15.783Z,75.91
2023-04-12T11:29:16.072Z,76.15
2023-04-12T11:34:15.876Z,76.45
2023-04-12T11:39:14.405Z,76.70
2023-04-12T11:44:17.813Z,76.70
2023-04-12T11:49:20.354Z,76.81
2023-04-12T11:54:18.195Z,76.80
2023-04-12T11:59:17.522Z,76.67
2023-04-12T12:04:15.159Z,76.29
2023-04-12T12:09:15.931Z,76.19
2023-04-12T12:14:27.780Z,75.77
2023-04-12T12:19:32.298Z,76.11
2023-04-12T12:24:29.571Z,76.21
2023-04-12T12:29:34.844Z,76.52
2023-04-12T12:34:32.251Z,76.34
2023-04-12T12:39:30.021Z,76.25
2023-04-12T12:44:28.011Z,76.58
2023-04-12T12:49:24.968Z,76.67
2023-04-12T12:54:36.771Z,76.76
2023-04-12T12:59:38.789Z,76.72
2023-04-12T13:04:35.966Z,76.01
2023-04-12T13:09:33.260Z,75.69
2023-04-12T13:14:30.527Z,75.95
2023-04-12T13:19:28.360Z,76.13
2023-04-12T13:24:25.369Z,76.16
2023-04-12T13:29:27.917Z,75.78
2023-04-12T13:34:58.555Z,75.91
2023-04-12T13:40:07.098Z,76.26
2023-04-12T13:45:04.785Z,76.30
2023-04-12T13:50:03.066Z,76.39
2023-04-12T13:55:03.262Z,76.83
2023-04-12T14:00:04.307Z,76.57
2023-04-12T14:05:05.808Z,76.75
2023-04-12T14:10:03.444Z,76.82
2023-04-12T14:15:04.031Z,77.03
2023-04-12T14:20:01.203Z,76.72
2023-04-12T14:24:59.127Z,76.33
2023-04-12T14:29:59.149Z,76.24
2023-04-12T14:35:03.707Z,75.80
2023-04-12T14:40:02.103Z,75.15
2023-04-12T14:45:05.115Z,74.89
2023-04-12T14:50:08.290Z,75.38
2023-04-12T14:55:07.459Z,75.10
2023-04-12T15:00:12.844Z,74.68
2023-04-12T15:05:12.974Z,74.92
2023-04-12T15:10:17.067Z,74.73
2023-04-12T15:15:18.669Z,75.32
2023-04-12T15:20:21.723Z,75.19
2023-04-12T15:25:22.297Z,75.49
2023-04-12T15:30:19.729Z,75.45
2023-04-12T15:35:26.375Z,74.98
2023-04-12T15:40:28.540Z,74.89
2023-04-12T15:45:27.475Z,73.58
2023-04-12T15:50:27.848Z,72.98
2023-04-12T15:55:29.360Z,73.23
2023-04-12T16:00:26.853Z,72.13
2023-04-12T16:05:33.755Z,71.55
2023-04-12T16:10:37.638Z,72.26
2023-04-12T16:15:35.160Z,69.43
2023-04-12T16:20:33.942Z,67.07
2023-04-12T16:25:36.532Z,62.34
2023-04-12T16:30:35.829Z,61.01
2023-04-12T16:35:32.877Z,61.97
2023-04-12T16:40:33.086Z,63.55
2023-04-12T16:45:32.534Z,63.03
2023-04-12T16:50:29.620Z,61.57
2023-04-12T16:55:26.714Z,63.03
2023-04-12T17:00:26.331Z,66.33
2023-04-12T17:05:24.253Z,67.49
2023-04-12T17:10:23.744Z,68.98
2023-04-12T17:15:21.417Z,69.54
2023-04-12T17:20:23.276Z,69.99
2023-04-12T17:25:24.075Z,69.89
2023-04-12T17:30:33.089Z,69.97
2023-04-12T17:35:32.733Z,69.96
2023-04-12T17:40:30.508Z,69.86
2023-04-12T17:45:30.369Z,70.05
2023-04-12T17:50:27.555Z,69.75
2023-04-12T17:55:25.409Z,69.44
2023-04-12T18:00:24.752Z,68.71
2023-04-12T18:05:21.718Z,69.00
2023-04-12T18:10:21.429Z,69.25
2023-04-12T18:15:22.348Z,68.99
2023-04-12T18:20:22.096Z,68.99
2023-04-12T18:25:19.061Z,69.19
2023-04-12T18:30:18.486Z,69.20
2023-04-12T18:35:18.604Z,69.04
2023-04-12T18:40:19.157Z,69.20
2023-04-12T18:45:16.054Z,69.56
2023-04-12T18:50:13.963Z,70.03
2023-04-12T18:55:11.673Z,70.01
2023-04-12T19:00:13.700Z,70.41
2023-04-12T19:05:11.677Z,70.83
2023-04-12T19:10:09.662Z,71.16
2023-04-12T19:15:09.062Z,71.26
2023-04-12T19:20:07.233Z,71.45
2023-04-12T19:25:04.703Z,71.78
2023-04-12T19:30:02.927Z,71.49
2023-04-12T19:35:00.765Z,71.95
2023-04-12T19:40:00.530Z,71.55
2023-04-12T19:44:57.405Z,71.39
2023-04-12T19:49:55.408Z,70.51
2023-04-12T19:54:56.521Z,69.92
2023-04-12T19:59:53.861Z,70.07
2023-04-12T20:04:50.865Z,69.82
2023-04-12T20:09:47.891Z,69.54
2023-04-12T20:14:45.688Z,69.12
2023-04-12T20:19:42.840Z,69.35
2023-04-12T20:24:39.914Z,68.88
2023-04-12T20:29:36.884Z,68.93
2023-04-12T20:34:41.726Z,68.81
2023-04-12T20:39:39.122Z,68.61
2023-04-12T20:44:37.301Z,68.35
2023-04-12T20:49:35.451Z,68.00
2023-04-12T20:54:33.318Z,67.50
2023-04-12T20:59:30.374Z,67.25
2023-04-12T21:04:27.652Z,66.99
2023-04-12T21:09:26.171Z,66.34
2023-04-12T21:14:24.056Z,66.60
2023-04-12T21:19:22.284Z,66.78
2023-04-12T21:24:19.176Z,66.47
2023-04-12T21:29:19.061Z,66.73
2023-04-12T21:34:16.558Z,66.54
2023-04-12T21:39:17.191Z,66.58
2023-04-12T21:44:14.182Z,67.07
2023-04-12T21:49:11.880Z,66.54
2023-04-12T21:54:08.802Z,65.93
2023-04-12T21:59:07.165Z,65.81
2023-04-12T22:04:04.192Z,65.96
2023-04-12T22:09:03.585Z,66.14
2023-04-12T22:14:00.483Z,66.31
2023-04-12T22:18:58.679Z,66.15
2023-04-12T22:23:55.798Z,66.21
2023-04-12T22:28:53.652Z,66.38
2023-04-12T22:33:54.268Z,66.17
2023-04-12T22:38:51.348Z,65.98
2023-04-12T22:43:49.334Z,66.10
2023-04-12T22:48:47.566Z,65.80
2023-04-12T22:53:44.470Z,65.73
2023-04-12T22:58:42.479Z,65.75
2023-04-12T23:03:41.006Z,65.47
2023-04-12T23:08:38.677Z,64.97
2023-04-12T23:13:35.597Z,64.94
2023-04-12T23:18:33.505Z,64.51
2023-04-12T23:23:30.445Z,64.09
2023-04-12T23:28:28.226Z,63.54
2023-04-12T23:33:25.082Z,63.78
2023-04-12T23:38:31.802Z,64.11
2023-04-12T23:43:31.752Z,63.92
2023-04-12T23:48:28.983Z,63.85
2023-04-12T23:53:26.040Z,63.45
2023-04-12T23:58:24.780Z,63.64
